sensor_id;sensor_type;location;lat;lon;timestamp;P1;durP1;ratioP1;P2;durP2;ratioP2
5117;SDS011;2578;51.622;7.046;2023-02-28T00:01:00;2.83;;;2.00;;
5117;SDS011;2578;51.622;7.046;2023-02-28T00:03:26;2.90;;;2.00;;
5117;SDS011;2578;51.622;7.046;2023-02-28T00:05:51;2.90;;;2.00;;
5117;SDS011;2578;51.622;7.046;2023-02-28T00:08:17;2.90;;;2.00;;
5117;SDS011;2578;51.622;7.046;2023-02-28T00:10:42;2.80;;;1.90;;
5117;SDS011;2578;51.622;7.046;2023-02-28T00:13:08;3.00;;;2.27;;
5117;SDS011;2578;51.622;7.046;2023-02-28T00:15:34;2.93;;;2.20;;
5117;SDS011;2578;51.622;7.046;2023-02-28T00:17:59;3.00;;;2.40;;
5117;SDS011;2578;51.622;7.046;2023-02-28T00:20:26;3.10;;;2.63;;
5117;SDS011;2578;51.622;7.046;2023-02-28T00:22:52;3.00;;;2.30;;
5117;SDS011;2578;51.622;7.046;2023-02-28T00:25:19;3.00;;;2.33;;
5117;SDS011;2578;51.622;7.046;2023-02-28T00:27:47;3.03;;;2.50;;
5117;SDS011;2578;51.622;7.046;2023-02-28T00:30:17;3.03;;;2.30;;
5117;SDS011;2578;51.622;7.046;2023-02-28T00:32:44;3.93;;;2.40;;
5117;SDS011;2578;51.622;7.046;2023-02-28T00:35:10;2.90;;;2.20;;
5117;SDS011;2578;51.622;7.046;2023-02-28T00:37:36;2.90;;;2.20;;
5117;SDS011;2578;51.622;7.046;2023-02-28T00:40:02;3.10;;;2.60;;
5117;SDS011;2578;51.622;7.046;2023-02-28T00:42:30;3.00;;;2.37;;
5117;SDS011;2578;51.622;7.046;2023-02-28T00:44:56;2.90;;;2.30;;
5117;SDS011;2578;51.622;7.046;2023-02-28T00:47:21;2.90;;;2.20;;
5117;SDS011;2578;51.622;7.046;2023-02-28T00:49:47;2.93;;;2.20;;
5117;SDS011;2578;51.622;7.046;2023-02-28T00:52:13;2.90;;;2.20;;
5117;SDS011;2578;51.622;7.046;2023-02-28T00:54:38;2.80;;;1.90;;
5117;SDS011;2578;51.622;7.046;2023-02-28T00:57:04;2.80;;;1.90;;
5117;SDS011;2578;51.622;7.046;2023-02-28T00:59:29;3.10;;;2.47;;
5117;SDS011;2578;51.622;7.046;2023-02-28T01:01:55;3.57;;;2.87;;
5117;SDS011;2578;51.622;7.046;2023-02-28T01:04:21;2.90;;;1.90;;
5117;SDS011;2578;51.622;7.046;2023-02-28T01:06:47;3.07;;;2.53;;
5117;SDS011;2578;51.622;7.046;2023-02-28T01:09:12;2.90;;;2.07;;
5117;SDS011;2578;51.622;7.046;2023-02-28T01:11:38;3.00;;;2.20;;
5117;SDS011;2578;51.622;7.046;2023-02-28T01:14:05;2.80;;;1.93;;
5117;SDS011;2578;51.622;7.046;2023-02-28T01:16:31;2.90;;;1.97;;
5117;SDS011;2578;51.622;7.046;2023-02-28T01:18:57;2.90;;;2.10;;
5117;SDS011;2578;51.622;7.046;2023-02-28T01:21:23;2.83;;;2.00;;
5117;SDS011;2578;51.622;7.046;2023-02-28T01:23:48;3.00;;;2.10;;
5117;SDS011;2578;51.622;7.046;2023-02-28T01:28:44;2.97;;;2.17;;
5117;SDS011;2578;51.622;7.046;2023-02-28T01:31:10;2.90;;;2.00;;
5117;SDS011;2578;51.622;7.046;2023-02-28T01:33:37;2.90;;;2.20;;
5117;SDS011;2578;51.622;7.046;2023-02-28T01:36:04;2.90;;;2.10;;
5117;SDS011;2578;51.622;7.046;2023-02-28T01:38:37;3.00;;;2.30;;
5117;SDS011;2578;51.622;7.046;2023-02-28T01:41:04;2.90;;;2.20;;
5117;SDS011;2578;51.622;7.046;2023-02-28T01:43:32;2.90;;;2.20;;
5117;SDS011;2578;51.622;7.046;2023-02-28T01:46:06;2.97;;;2.30;;
5117;SDS011;2578;51.622;7.046;2023-02-28T01:48:32;3.10;;;2.40;;
5117;SDS011;2578;51.622;7.046;2023-02-28T01:51:05;3.07;;;2.40;;
5117;SDS011;2578;51.622;7.046;2023-02-28T01:53:42;3.10;;;2.60;;
5117;SDS011;2578;51.622;7.046;2023-02-28T01:56:12;3.67;;;3.33;;
5117;SDS011;2578;51.622;7.046;2023-02-28T01:58:45;3.87;;;3.37;;
5117;SDS011;2578;51.622;7.046;2023-02-28T02:01:12;3.07;;;2.50;;
5117;SDS011;2578;51.622;7.046;2023-02-28T02:03:46;3.00;;;2.50;;
5117;SDS011;2578;51.622;7.046;2023-02-28T02:06:24;2.90;;;2.10;;
5117;SDS011;2578;51.622;7.046;2023-02-28T02:08:54;2.90;;;2.00;;
5117;SDS011;2578;51.622;7.046;2023-02-28T02:11:20;3.00;;;2.30;;
5117;SDS011;2578;51.622;7.046;2023-02-28T02:34:04;2.90;;;2.00;;
5117;SDS011;2578;51.622;7.046;2023-02-28T02:37:27;2.80;;;1.90;;
5117;SDS011;2578;51.622;7.046;2023-02-28T02:40:00;2.70;;;1.70;;
5117;SDS011;2578;51.622;7.046;2023-02-28T02:45:13;2.80;;;1.80;;
5117;SDS011;2578;51.622;7.046;2023-02-28T02:47:48;2.90;;;2.00;;
5117;SDS011;2578;51.622;7.046;2023-02-28T02:50:20;2.80;;;1.90;;
5117;SDS011;2578;51.622;7.046;2023-02-28T02:52:51;2.70;;;1.70;;
5117;SDS011;2578;51.622;7.046;2023-02-28T02:55:20;5.30;;;2.77;;
5117;SDS011;2578;51.622;7.046;2023-02-28T02:57:49;2.73;;;1.70;;
5117;SDS011;2578;51.622;7.046;2023-02-28T03:00:23;2.77;;;1.70;;
5117;SDS011;2578;51.622;7.046;2023-02-28T03:02:55;2.90;;;2.10;;
5117;SDS011;2578;51.622;7.046;2023-02-28T03:08:15;2.90;;;2.00;;
5117;SDS011;2578;51.622;7.046;2023-02-28T03:10:43;2.90;;;2.10;;
5117;SDS011;2578;51.622;7.046;2023-02-28T03:19:08;2.63;;;1.60;;
5117;SDS011;2578;51.622;7.046;2023-02-28T03:27:29;2.70;;;1.60;;
5117;SDS011;2578;51.622;7.046;2023-02-28T03:30:03;2.70;;;1.50;;
5117;SDS011;2578;51.622;7.046;2023-02-28T03:32:57;2.63;;;1.50;;
5117;SDS011;2578;51.622;7.046;2023-02-28T03:35:25;2.67;;;1.47;;
5117;SDS011;2578;51.622;7.046;2023-02-28T03:37:58;3.00;;;2.00;;
5117;SDS011;2578;51.622;7.046;2023-02-28T03:40:33;2.80;;;1.80;;
5117;SDS011;2578;51.622;7.046;2023-02-28T03:43:03;2.70;;;1.60;;
5117;SDS011;2578;51.622;7.046;2023-02-28T03:45:35;2.60;;;1.50;;
5117;SDS011;2578;51.622;7.046;2023-02-28T03:48:06;2.70;;;1.60;;
5117;SDS011;2578;51.622;7.046;2023-02-28T03:50:40;2.60;;;1.30;;
5117;SDS011;2578;51.622;7.046;2023-02-28T03:55:48;2.70;;;1.60;;
5117;SDS011;2578;51.622;7.046;2023-02-28T04:01:05;2.80;;;1.77;;
5117;SDS011;2578;51.622;7.046;2023-02-28T04:03:35;2.70;;;1.63;;
5117;SDS011;2578;51.622;7.046;2023-02-28T04:06:02;2.70;;;1.60;;
5117;SDS011;2578;51.622;7.046;2023-02-28T04:08:29;2.80;;;1.70;;
5117;SDS011;2578;51.622;7.046;2023-02-28T04:11:00;2.80;;;1.70;;
5117;SDS011;2578;51.622;7.046;2023-02-28T04:13:33;2.87;;;1.73;;
5117;SDS011;2578;51.622;7.046;2023-02-28T04:15:59;2.70;;;1.50;;
5117;SDS011;2578;51.622;7.046;2023-02-28T04:18:24;2.60;;;1.47;;
5117;SDS011;2578;51.622;7.046;2023-02-28T04:20:50;2.70;;;1.63;;
5117;SDS011;2578;51.622;7.046;2023-02-28T04:23:16;2.60;;;1.20;;
5117;SDS011;2578;51.622;7.046;2023-02-28T04:25:41;2.60;;;1.20;;
5117;SDS011;2578;51.622;7.046;2023-02-28T04:28:07;2.53;;;1.10;;
5117;SDS011;2578;51.622;7.046;2023-02-28T04:30:32;2.50;;;1.10;;
5117;SDS011;2578;51.622;7.046;2023-02-28T04:32:58;2.53;;;1.00;;
5117;SDS011;2578;51.622;7.046;2023-02-28T04:35:25;2.57;;;1.10;;
5117;SDS011;2578;51.622;7.046;2023-02-28T04:37:51;2.57;;;1.20;;
5117;SDS011;2578;51.622;7.046;2023-02-28T04:40:16;2.60;;;1.10;;
5117;SDS011;2578;51.622;7.046;2023-02-28T04:42:42;2.60;;;1.10;;
5117;SDS011;2578;51.622;7.046;2023-02-28T04:45:08;2.60;;;1.10;;
5117;SDS011;2578;51.622;7.046;2023-02-28T04:47:35;2.60;;;1.10;;
5117;SDS011;2578;51.622;7.046;2023-02-28T04:50:01;2.60;;;1.30;;
5117;SDS011;2578;51.622;7.046;2023-02-28T04:52:28;2.60;;;1.10;;
5117;SDS011;2578;51.622;7.046;2023-02-28T04:54:53;2.60;;;1.20;;
5117;SDS011;2578;51.622;7.046;2023-02-28T04:57:19;2.57;;;1.10;;
5117;SDS011;2578;51.622;7.046;2023-02-28T04:59:44;2.60;;;1.20;;
5117;SDS011;2578;51.622;7.046;2023-02-28T05:02:10;2.53;;;1.10;;
5117;SDS011;2578;51.622;7.046;2023-02-28T05:04:36;2.60;;;1.20;;
5117;SDS011;2578;51.622;7.046;2023-02-28T05:07:02;2.60;;;1.20;;
5117;SDS011;2578;51.622;7.046;2023-02-28T05:09:28;2.60;;;1.20;;
5117;SDS011;2578;51.622;7.046;2023-02-28T05:11:53;2.63;;;1.43;;
5117;SDS011;2578;51.622;7.046;2023-02-28T05:14:19;2.60;;;1.20;;
5117;SDS011;2578;51.622;7.046;2023-02-28T05:16:45;2.67;;;1.40;;
5117;SDS011;2578;51.622;7.046;2023-02-28T05:19:11;2.70;;;1.40;;
5117;SDS011;2578;51.622;7.046;2023-02-28T05:21:37;2.80;;;1.50;;
5117;SDS011;2578;51.622;7.046;2023-02-28T05:24:06;2.70;;;1.40;;
5117;SDS011;2578;51.622;7.046;2023-02-28T05:29:56;2.80;;;1.50;;
5117;SDS011;2578;51.622;7.046;2023-02-28T05:32:23;2.70;;;1.47;;
5117;SDS011;2578;51.622;7.046;2023-02-28T05:34:49;2.80;;;1.60;;
5117;SDS011;2578;51.622;7.046;2023-02-28T05:37:15;2.83;;;1.70;;
5117;SDS011;2578;51.622;7.046;2023-02-28T05:39:41;2.90;;;1.80;;
5117;SDS011;2578;51.622;7.046;2023-02-28T05:42:07;2.90;;;1.70;;
5117;SDS011;2578;51.622;7.046;2023-02-28T05:44:34;2.80;;;1.60;;
5117;SDS011;2578;51.622;7.046;2023-02-28T05:46:59;2.80;;;1.70;;
5117;SDS011;2578;51.622;7.046;2023-02-28T05:49:25;2.90;;;1.70;;
5117;SDS011;2578;51.622;7.046;2023-02-28T05:51:51;2.90;;;1.97;;
5117;SDS011;2578;51.622;7.046;2023-02-28T05:54:16;2.90;;;2.00;;
5117;SDS011;2578;51.622;7.046;2023-02-28T05:56:42;3.00;;;1.90;;
5117;SDS011;2578;51.622;7.046;2023-02-28T05:59:10;2.93;;;2.03;;
5117;SDS011;2578;51.622;7.046;2023-02-28T06:01:40;3.03;;;2.20;;
5117;SDS011;2578;51.622;7.046;2023-02-28T06:04:10;3.00;;;2.20;;
5117;SDS011;2578;51.622;7.046;2023-02-28T06:06:36;3.10;;;2.40;;
5117;SDS011;2578;51.622;7.046;2023-02-28T06:09:02;3.07;;;2.30;;
5117;SDS011;2578;51.622;7.046;2023-02-28T06:11:29;3.07;;;2.20;;
5117;SDS011;2578;51.622;7.046;2023-02-28T06:13:55;3.10;;;2.33;;
5117;SDS011;2578;51.622;7.046;2023-02-28T06:16:22;3.13;;;2.63;;
5117;SDS011;2578;51.622;7.046;2023-02-28T06:18:48;3.20;;;2.67;;
5117;SDS011;2578;51.622;7.046;2023-02-28T06:21:14;3.10;;;2.40;;
5117;SDS011;2578;51.622;7.046;2023-02-28T06:23:40;3.53;;;2.63;;
5117;SDS011;2578;51.622;7.046;2023-02-28T06:26:05;3.00;;;2.30;;
5117;SDS011;2578;51.622;7.046;2023-02-28T06:28:31;2.90;;;2.00;;
5117;SDS011;2578;51.622;7.046;2023-02-28T06:30:57;2.93;;;1.90;;
5117;SDS011;2578;51.622;7.046;2023-02-28T06:33:22;3.00;;;2.00;;
5117;SDS011;2578;51.622;7.046;2023-02-28T06:35:51;2.90;;;1.90;;
5117;SDS011;2578;51.622;7.046;2023-02-28T06:38:17;2.83;;;1.70;;
5117;SDS011;2578;51.622;7.046;2023-02-28T06:40:43;2.83;;;1.70;;
5117;SDS011;2578;51.622;7.046;2023-02-28T06:43:09;3.00;;;2.03;;
5117;SDS011;2578;51.622;7.046;2023-02-28T06:45:41;2.70;;;1.60;;
5117;SDS011;2578;51.622;7.046;2023-02-28T06:48:08;2.80;;;1.60;;
5117;SDS011;2578;51.622;7.046;2023-02-28T06:50:33;2.90;;;1.70;;
5117;SDS011;2578;51.622;7.046;2023-02-28T06:52:59;2.90;;;1.70;;
5117;SDS011;2578;51.622;7.046;2023-02-28T06:55:25;2.90;;;1.70;;
5117;SDS011;2578;51.622;7.046;2023-02-28T06:57:50;2.90;;;1.70;;
5117;SDS011;2578;51.622;7.046;2023-02-28T07:00:16;3.00;;;1.70;;
5117;SDS011;2578;51.622;7.046;2023-02-28T07:02:42;2.93;;;1.80;;
5117;SDS011;2578;51.622;7.046;2023-02-28T07:05:08;2.90;;;1.70;;
5117;SDS011;2578;51.622;7.046;2023-02-28T07:07:33;3.00;;;1.90;;
5117;SDS011;2578;51.622;7.046;2023-02-28T07:10:01;3.00;;;1.90;;
5117;SDS011;2578;51.622;7.046;2023-02-28T07:12:27;3.20;;;2.50;;
5117;SDS011;2578;51.622;7.046;2023-02-28T07:14:52;3.23;;;2.40;;
5117;SDS011;2578;51.622;7.046;2023-02-28T07:17:20;3.37;;;2.83;;
5117;SDS011;2578;51.622;7.046;2023-02-28T07:19:46;4.67;;;4.27;;
5117;SDS011;2578;51.622;7.046;2023-02-28T07:22:11;5.00;;;4.60;;
5117;SDS011;2578;51.622;7.046;2023-02-28T07:24:37;5.63;;;5.23;;
5117;SDS011;2578;51.622;7.046;2023-02-28T07:27:03;6.90;;;6.40;;
5117;SDS011;2578;51.622;7.046;2023-02-28T07:29:28;7.70;;;7.20;;
5117;SDS011;2578;51.622;7.046;2023-02-28T07:31:55;9.40;;;8.80;;
5117;SDS011;2578;51.622;7.046;2023-02-28T07:34:21;9.50;;;8.90;;
5117;SDS011;2578;51.622;7.046;2023-02-28T07:36:47;10.30;;;9.70;;
5117;SDS011;2578;51.622;7.046;2023-02-28T07:39:12;11.30;;;10.60;;
5117;SDS011;2578;51.622;7.046;2023-02-28T07:41:38;13.10;;;12.30;;
5117;SDS011;2578;51.622;7.046;2023-02-28T07:44:08;14.50;;;13.60;;
5117;SDS011;2578;51.622;7.046;2023-02-28T07:46:35;16.70;;;15.60;;
5117;SDS011;2578;51.622;7.046;2023-02-28T07:49:01;18.30;;;17.10;;
5117;SDS011;2578;51.622;7.046;2023-02-28T07:51:28;18.80;;;17.50;;
5117;SDS011;2578;51.622;7.046;2023-02-28T07:53:54;20.47;;;19.07;;
5117;SDS011;2578;51.622;7.046;2023-02-28T07:56:20;21.83;;;20.33;;
5117;SDS011;2578;51.622;7.046;2023-02-28T07:58:46;23.00;;;21.40;;
5117;SDS011;2578;51.622;7.046;2023-02-28T08:01:12;23.90;;;22.20;;
5117;SDS011;2578;51.622;7.046;2023-02-28T08:03:38;24.17;;;22.40;;
5117;SDS011;2578;51.622;7.046;2023-02-28T08:06:04;25.17;;;23.30;;
5117;SDS011;2578;51.622;7.046;2023-02-28T08:08:32;23.80;;;22.20;;
5117;SDS011;2578;51.622;7.046;2023-02-28T08:11:01;23.00;;;21.40;;
5117;SDS011;2578;51.622;7.046;2023-02-28T08:13:28;22.97;;;21.37;;
5117;SDS011;2578;51.622;7.046;2023-02-28T08:15:55;22.47;;;20.87;;
5117;SDS011;2578;51.622;7.046;2023-02-28T08:18:21;22.70;;;21.10;;
5117;SDS011;2578;51.622;7.046;2023-02-28T08:20:47;23.50;;;21.90;;
5117;SDS011;2578;51.622;7.046;2023-02-28T08:23:13;24.10;;;22.30;;
5117;SDS011;2578;51.622;7.046;2023-02-28T08:25:39;22.70;;;21.00;;
5117;SDS011;2578;51.622;7.046;2023-02-28T08:28:05;23.63;;;21.83;;
5117;SDS011;2578;51.622;7.046;2023-02-28T08:30:30;23.40;;;21.60;;
5117;SDS011;2578;51.622;7.046;2023-02-28T08:32:56;22.40;;;20.70;;
5117;SDS011;2578;51.622;7.046;2023-02-28T08:35:22;22.23;;;20.53;;
5117;SDS011;2578;51.622;7.046;2023-02-28T08:37:48;22.20;;;20.50;;
5117;SDS011;2578;51.622;7.046;2023-02-28T08:40:14;22.57;;;20.87;;
5117;SDS011;2578;51.622;7.046;2023-02-28T08:42:43;21.50;;;19.90;;
5117;SDS011;2578;51.622;7.046;2023-02-28T08:45:09;21.43;;;19.83;;
5117;SDS011;2578;51.622;7.046;2023-02-28T08:47:36;21.90;;;20.20;;
5117;SDS011;2578;51.622;7.046;2023-02-28T08:50:02;23.00;;;21.30;;
5117;SDS011;2578;51.622;7.046;2023-02-28T08:52:28;24.47;;;22.77;;
5117;SDS011;2578;51.622;7.046;2023-02-28T08:54:53;21.80;;;20.20;;
5117;SDS011;2578;51.622;7.046;2023-02-28T08:57:19;22.80;;;20.90;;
5117;SDS011;2578;51.622;7.046;2023-02-28T08:59:44;22.20;;;20.50;;
5117;SDS011;2578;51.622;7.046;2023-02-28T09:02:12;22.90;;;21.10;;
5117;SDS011;2578;51.622;7.046;2023-02-28T09:04:39;22.97;;;20.97;;
5117;SDS011;2578;51.622;7.046;2023-02-28T09:07:05;26.33;;;20.67;;
5117;SDS011;2578;51.622;7.046;2023-02-28T09:09:30;25.30;;;23.40;;
5117;SDS011;2578;51.622;7.046;2023-02-28T09:11:56;25.27;;;23.27;;
5117;SDS011;2578;51.622;7.046;2023-02-28T09:14:22;25.73;;;23.83;;
5117;SDS011;2578;51.622;7.046;2023-02-28T09:16:47;28.70;;;23.73;;
5117;SDS011;2578;51.622;7.046;2023-02-28T09:19:13;24.20;;;22.30;;
5117;SDS011;2578;51.622;7.046;2023-02-28T09:21:39;25.10;;;23.20;;
5117;SDS011;2578;51.622;7.046;2023-02-28T09:24:05;25.90;;;24.00;;
5117;SDS011;2578;51.622;7.046;2023-02-28T09:26:31;27.07;;;25.07;;
5117;SDS011;2578;51.622;7.046;2023-02-28T09:28:57;28.23;;;26.03;;
5117;SDS011;2578;51.622;7.046;2023-02-28T09:31:24;26.90;;;24.90;;
5117;SDS011;2578;51.622;7.046;2023-02-28T09:33:54;28.53;;;26.53;;
5117;SDS011;2578;51.622;7.046;2023-02-28T09:36:22;28.43;;;26.33;;
5117;SDS011;2578;51.622;7.046;2023-02-28T09:38:48;28.30;;;26.20;;
5117;SDS011;2578;51.622;7.046;2023-02-28T09:41:20;29.10;;;26.80;;
5117;SDS011;2578;51.622;7.046;2023-02-28T09:43:55;27.00;;;24.90;;
5117;SDS011;2578;51.622;7.046;2023-02-28T09:48:57;25.90;;;23.90;;
5117;SDS011;2578;51.622;7.046;2023-02-28T09:54:15;26.00;;;24.10;;
5117;SDS011;2578;51.622;7.046;2023-02-28T09:56:49;26.50;;;24.60;;
5117;SDS011;2578;51.622;7.046;2023-02-28T09:59:25;27.50;;;25.50;;
5117;SDS011;2578;51.622;7.046;2023-02-28T10:04:58;27.23;;;25.23;;
5117;SDS011;2578;51.622;7.046;2023-02-28T10:10:21;30.37;;;28.17;;
5117;SDS011;2578;51.622;7.046;2023-02-28T10:15:53;27.43;;;25.37;;
5117;SDS011;2578;51.622;7.046;2023-02-28T10:18:29;28.50;;;26.40;;
5117;SDS011;2578;51.622;7.046;2023-02-28T10:21:00;29.60;;;27.40;;
5117;SDS011;2578;51.622;7.046;2023-02-28T10:23:34;28.90;;;26.80;;
5117;SDS011;2578;51.622;7.046;2023-02-28T10:26:11;28.13;;;26.13;;
5117;SDS011;2578;51.622;7.046;2023-02-28T10:28:38;29.50;;;26.43;;
5117;SDS011;2578;51.622;7.046;2023-02-28T10:31:05;30.10;;;27.90;;
5117;SDS011;2578;51.622;7.046;2023-02-28T10:33:43;28.73;;;26.73;;
5117;SDS011;2578;51.622;7.046;2023-02-28T10:36:17;28.60;;;26.70;;
5117;SDS011;2578;51.622;7.046;2023-02-28T10:38:45;28.73;;;26.73;;
5117;SDS011;2578;51.622;7.046;2023-02-28T10:41:12;29.30;;;27.30;;
5117;SDS011;2578;51.622;7.046;2023-02-28T10:43:40;27.03;;;25.13;;
5117;SDS011;2578;51.622;7.046;2023-02-28T10:48:36;25.33;;;23.43;;
5117;SDS011;2578;51.622;7.046;2023-02-28T10:51:16;25.33;;;23.53;;
5117;SDS011;2578;51.622;7.046;2023-02-28T10:53:53;25.67;;;23.77;;
5117;SDS011;2578;51.622;7.046;2023-02-28T10:56:23;26.50;;;24.50;;
5117;SDS011;2578;51.622;7.046;2023-02-28T11:01:35;26.93;;;24.53;;
5117;SDS011;2578;51.622;7.046;2023-02-28T11:04:16;26.10;;;24.20;;
5117;SDS011;2578;51.622;7.046;2023-02-28T11:06:46;26.53;;;24.53;;
5117;SDS011;2578;51.622;7.046;2023-02-28T11:09:18;29.70;;;27.50;;
5117;SDS011;2578;51.622;7.046;2023-02-28T11:11:49;29.33;;;27.13;;
5117;SDS011;2578;51.622;7.046;2023-02-28T11:14:19;29.53;;;27.33;;
5117;SDS011;2578;51.622;7.046;2023-02-28T11:16:57;29.83;;;27.53;;
5117;SDS011;2578;51.622;7.046;2023-02-28T11:19:28;29.67;;;27.47;;
5117;SDS011;2578;51.622;7.046;2023-02-28T11:22:03;28.63;;;26.43;;
5117;SDS011;2578;51.622;7.046;2023-02-28T11:24:40;28.30;;;26.10;;
5117;SDS011;2578;51.622;7.046;2023-02-28T11:29:57;28.17;;;25.93;;
5117;SDS011;2578;51.622;7.046;2023-02-28T11:32:24;29.10;;;26.83;;
5117;SDS011;2578;51.622;7.046;2023-02-28T11:35:00;27.83;;;25.73;;
5117;SDS011;2578;51.622;7.046;2023-02-28T11:37:36;28.40;;;26.20;;
5117;SDS011;2578;51.622;7.046;2023-02-28T11:40:13;28.77;;;26.63;;
5117;SDS011;2578;51.622;7.046;2023-02-28T11:42:50;29.23;;;27.03;;
5117;SDS011;2578;51.622;7.046;2023-02-28T11:45:36;27.30;;;25.20;;
5117;SDS011;2578;51.622;7.046;2023-02-28T11:48:23;28.27;;;26.17;;
5117;SDS011;2578;51.622;7.046;2023-02-28T11:51:05;29.37;;;27.13;;
5117;SDS011;2578;51.622;7.046;2023-02-28T11:57:00;28.50;;;26.30;;
5117;SDS011;2578;51.622;7.046;2023-02-28T11:59:44;27.90;;;25.77;;
5117;SDS011;2578;51.622;7.046;2023-02-28T12:05:40;27.80;;;25.70;;
5117;SDS011;2578;51.622;7.046;2023-02-28T12:11:12;27.80;;;25.70;;
5117;SDS011;2578;51.622;7.046;2023-02-28T12:14:06;28.50;;;26.20;;
5117;SDS011;2578;51.622;7.046;2023-02-28T12:19:29;26.67;;;24.67;;
5117;SDS011;2578;51.622;7.046;2023-02-28T12:27:40;27.00;;;24.43;;
5117;SDS011;2578;51.622;7.046;2023-02-28T12:30:22;27.50;;;25.33;;
5117;SDS011;2578;51.622;7.046;2023-02-28T12:33:01;27.27;;;25.17;;
5117;SDS011;2578;51.622;7.046;2023-02-28T12:38:19;28.20;;;26.10;;
5117;SDS011;2578;51.622;7.046;2023-02-28T12:44:09;27.60;;;25.50;;
5117;SDS011;2578;51.622;7.046;2023-02-28T12:46:43;27.60;;;25.40;;
5117;SDS011;2578;51.622;7.046;2023-02-28T12:52:06;28.83;;;26.40;;
5117;SDS011;2578;51.622;7.046;2023-02-28T12:54:38;27.03;;;25.00;;
5117;SDS011;2578;51.622;7.046;2023-02-28T13:00:18;26.40;;;24.40;;
5117;SDS011;2578;51.622;7.046;2023-02-28T13:02:54;25.20;;;23.20;;
5117;SDS011;2578;51.622;7.046;2023-02-28T13:10:59;28.33;;;26.13;;
5117;SDS011;2578;51.622;7.046;2023-02-28T13:13:26;27.73;;;25.60;;
5117;SDS011;2578;51.622;7.046;2023-02-28T13:18:27;28.03;;;25.93;;
5117;SDS011;2578;51.622;7.046;2023-02-28T13:20:53;26.90;;;24.80;;
5117;SDS011;2578;51.622;7.046;2023-02-28T13:26:06;27.40;;;25.30;;
5117;SDS011;2578;51.622;7.046;2023-02-28T13:31:26;27.20;;;25.10;;
5117;SDS011;2578;51.622;7.046;2023-02-28T13:36:28;26.03;;;24.03;;
5117;SDS011;2578;51.622;7.046;2023-02-28T13:38:55;26.70;;;24.60;;
5117;SDS011;2578;51.622;7.046;2023-02-28T13:47:21;26.60;;;24.40;;
5117;SDS011;2578;51.622;7.046;2023-02-28T14:09:03;32.37;;;30.07;;
5117;SDS011;2578;51.622;7.046;2023-02-28T14:11:43;32.10;;;29.80;;
5117;SDS011;2578;51.622;7.046;2023-02-28T14:14:10;31.73;;;29.53;;
5117;SDS011;2578;51.622;7.046;2023-02-28T14:17:06;33.10;;;30.63;;
5117;SDS011;2578;51.622;7.046;2023-02-28T14:19:37;31.93;;;29.53;;
5117;SDS011;2578;51.622;7.046;2023-02-28T14:27:24;32.00;;;29.70;;
5117;SDS011;2578;51.622;7.046;2023-02-28T14:33:00;31.33;;;29.03;;
5117;SDS011;2578;51.622;7.046;2023-02-28T14:38:30;31.77;;;29.20;;
5117;SDS011;2578;51.622;7.046;2023-02-28T14:41:00;31.00;;;28.80;;
5117;SDS011;2578;51.622;7.046;2023-02-28T14:43:31;31.50;;;29.20;;
5117;SDS011;2578;51.622;7.046;2023-02-28T14:45:58;30.80;;;28.60;;
5117;SDS011;2578;51.622;7.046;2023-02-28T14:48:29;32.10;;;29.33;;
5117;SDS011;2578;51.622;7.046;2023-02-28T14:50:59;30.97;;;28.73;;
5117;SDS011;2578;51.622;7.046;2023-02-28T14:53:27;32.57;;;30.17;;
5117;SDS011;2578;51.622;7.046;2023-02-28T14:55:55;31.43;;;29.07;;
5117;SDS011;2578;51.622;7.046;2023-02-28T14:58:23;32.00;;;29.60;;
5117;SDS011;2578;51.622;7.046;2023-02-28T15:00:56;29.80;;;27.70;;
5117;SDS011;2578;51.622;7.046;2023-02-28T15:03:27;30.63;;;28.43;;
5117;SDS011;2578;51.622;7.046;2023-02-28T15:05:56;32.00;;;29.80;;
5117;SDS011;2578;51.622;7.046;2023-02-28T15:08:23;31.40;;;29.30;;
5117;SDS011;2578;51.622;7.046;2023-02-28T15:10:57;32.00;;;29.70;;
5117;SDS011;2578;51.622;7.046;2023-02-28T15:13:46;33.40;;;31.10;;
5117;SDS011;2578;51.622;7.046;2023-02-28T15:16:17;33.40;;;31.00;;
5117;SDS011;2578;51.622;7.046;2023-02-28T15:21:21;32.50;;;30.30;;
5117;SDS011;2578;51.622;7.046;2023-02-28T15:24:00;32.80;;;30.40;;
5117;SDS011;2578;51.622;7.046;2023-02-28T15:26:51;32.83;;;30.43;;
5117;SDS011;2578;51.622;7.046;2023-02-28T15:29:20;34.20;;;31.80;;
5117;SDS011;2578;51.622;7.046;2023-02-28T15:34:37;32.33;;;30.23;;
5117;SDS011;2578;51.622;7.046;2023-02-28T15:40:41;32.53;;;30.10;;
5117;SDS011;2578;51.622;7.046;2023-02-28T15:43:15;31.00;;;28.80;;
5117;SDS011;2578;51.622;7.046;2023-02-28T15:45:52;32.13;;;29.93;;
5117;SDS011;2578;51.622;7.046;2023-02-28T15:48:27;32.77;;;30.47;;
5117;SDS011;2578;51.622;7.046;2023-02-28T15:51:02;32.83;;;30.43;;
5117;SDS011;2578;51.622;7.046;2023-02-28T15:53:35;32.17;;;29.97;;
5117;SDS011;2578;51.622;7.046;2023-02-28T15:56:18;31.57;;;29.47;;
5117;SDS011;2578;51.622;7.046;2023-02-28T15:58:44;31.90;;;29.80;;
5117;SDS011;2578;51.622;7.046;2023-02-28T16:01:26;31.70;;;29.60;;
5117;SDS011;2578;51.622;7.046;2023-02-28T16:03:56;30.67;;;28.67;;
5117;SDS011;2578;51.622;7.046;2023-02-28T16:09:13;30.97;;;28.87;;
5117;SDS011;2578;51.622;7.046;2023-02-28T16:11:49;29.30;;;27.30;;
5117;SDS011;2578;51.622;7.046;2023-02-28T16:14:24;28.57;;;26.57;;
5117;SDS011;2578;51.622;7.046;2023-02-28T16:17:05;29.13;;;27.13;;
5117;SDS011;2578;51.622;7.046;2023-02-28T16:19:33;29.50;;;27.50;;
5117;SDS011;2578;51.622;7.046;2023-02-28T16:21:59;29.63;;;27.43;;
5117;SDS011;2578;51.622;7.046;2023-02-28T16:24:26;29.23;;;27.23;;
5117;SDS011;2578;51.622;7.046;2023-02-28T16:26:52;28.10;;;26.20;;
5117;SDS011;2578;51.622;7.046;2023-02-28T16:29:24;26.53;;;24.73;;
5117;SDS011;2578;51.622;7.046;2023-02-28T16:31:59;28.93;;;26.93;;
5117;SDS011;2578;51.622;7.046;2023-02-28T16:34:25;28.53;;;26.30;;
5117;SDS011;2578;51.622;7.046;2023-02-28T16:36:51;27.83;;;25.83;;
5117;SDS011;2578;51.622;7.046;2023-02-28T16:39:17;27.27;;;25.40;;
5117;SDS011;2578;51.622;7.046;2023-02-28T16:41:45;27.70;;;25.80;;
5117;SDS011;2578;51.622;7.046;2023-02-28T16:44:29;27.00;;;25.10;;
5117;SDS011;2578;51.622;7.046;2023-02-28T16:46:57;29.07;;;27.13;;
5117;SDS011;2578;51.622;7.046;2023-02-28T16:49:25;28.90;;;27.00;;
5117;SDS011;2578;51.622;7.046;2023-02-28T16:51:51;28.30;;;26.30;;
5117;SDS011;2578;51.622;7.046;2023-02-28T16:54:17;28.13;;;26.03;;
5117;SDS011;2578;51.622;7.046;2023-02-28T16:56:44;29.17;;;27.17;;
5117;SDS011;2578;51.622;7.046;2023-02-28T16:59:12;27.20;;;25.40;;
5117;SDS011;2578;51.622;7.046;2023-02-28T17:01:38;23.77;;;22.13;;
5117;SDS011;2578;51.622;7.046;2023-02-28T17:04:04;24.47;;;22.63;;
5117;SDS011;2578;51.622;7.046;2023-02-28T17:06:30;23.77;;;22.00;;
5117;SDS011;2578;51.622;7.046;2023-02-28T17:08:57;23.90;;;22.10;;
5117;SDS011;2578;51.622;7.046;2023-02-28T17:11:24;22.80;;;21.10;;
5117;SDS011;2578;51.622;7.046;2023-02-28T17:13:50;23.00;;;21.30;;
5117;SDS011;2578;51.622;7.046;2023-02-28T17:18:48;21.73;;;20.10;;
5117;SDS011;2578;51.622;7.046;2023-02-28T17:21:17;21.80;;;20.10;;
5117;SDS011;2578;51.622;7.046;2023-02-28T17:23:43;22.50;;;20.90;;
5117;SDS011;2578;51.622;7.046;2023-02-28T17:26:12;20.90;;;19.40;;
5117;SDS011;2578;51.622;7.046;2023-02-28T17:28:39;22.80;;;21.00;;
5117;SDS011;2578;51.622;7.046;2023-02-28T17:31:05;20.97;;;19.47;;
5117;SDS011;2578;51.622;7.046;2023-02-28T17:33:31;22.50;;;20.90;;
5117;SDS011;2578;51.622;7.046;2023-02-28T17:35:56;20.60;;;19.00;;
5117;SDS011;2578;51.622;7.046;2023-02-28T17:38:22;20.80;;;19.20;;
5117;SDS011;2578;51.622;7.046;2023-02-28T17:40:48;20.30;;;18.80;;
5117;SDS011;2578;51.622;7.046;2023-02-28T17:43:13;20.60;;;19.10;;
5117;SDS011;2578;51.622;7.046;2023-02-28T17:45:39;20.10;;;18.60;;
5117;SDS011;2578;51.622;7.046;2023-02-28T17:48:06;19.70;;;18.30;;
5117;SDS011;2578;51.622;7.046;2023-02-28T17:50:34;19.93;;;18.43;;
5117;SDS011;2578;51.622;7.046;2023-02-28T17:53:00;20.43;;;18.93;;
5117;SDS011;2578;51.622;7.046;2023-02-28T17:55:25;20.10;;;18.60;;
5117;SDS011;2578;51.622;7.046;2023-02-28T17:57:51;19.67;;;18.27;;
5117;SDS011;2578;51.622;7.046;2023-02-28T18:00:17;19.97;;;18.47;;